Time;durP1;ratioP1;P1;durP2;ratioP2;P2;SDS_P1;SDS_P2;PMS_P1;PMS_P2;Temp;Humidity;BMP_temperature;BMP_pressure;BME280_temperature;BME280_humidity;BME280_pressure;Samples;Min_cycle;Max_cycle;Signal;HPM_P1;HPM_P2
2021/10/08 00:00:27;;;;;;;10.20;5.00;;;;;;;8.37;100.00;97260.97;4938499;28;20027;-82
2021/10/08 00:02:52;;;;;;;7.13;4.60;;;;;;;8.37;100.00;97260.97;4957839;28;20029;-82
2021/10/08 00:05:18;;;;;;;6.60;4.73;;;;;;;8.39;100.00;97261.72;4941380;28;20069;-82
2021/10/08 00:07:44;;;;;;;8.53;5.20;;;;;;;8.38;100.00;97259.22;4968915;28;20027;-82
2021/10/08 00:10:10;;;;;;;9.33;4.80;;;;;;;8.34;100.00;97255.16;4956542;28;20058;-82
2021/10/08 00:12:35;;;;;;;7.17;5.00;;;;;;;8.32;100.00;97250.03;4960558;28;20034;-82
2021/10/08 00:15:01;;;;;;;9.03;5.00;;;;;;;8.34;100.00;97249.91;4963953;28;20432;-83
2021/10/08 00:17:27;;;;;;;9.93;5.43;;;;;;;8.26;100.00;97247.88;4958402;28;20022;-82
2021/10/08 00:19:52;;;;;;;8.00;5.30;;;;;;;8.23;100.00;97248.97;4944623;28;20055;-83
2021/10/08 00:22:22;;;;;;;8.13;4.70;;;;;;;8.20;100.00;97253.59;4959021;28;20063;-82
2021/10/08 00:24:48;;;;;;;8.07;5.20;;;;;;;8.17;100.00;97245.97;4966584;28;20047;-82
2021/10/08 00:27:14;;;;;;;9.50;5.10;;;;;;;8.07;100.00;97253.72;4939300;28;20108;-83
2021/10/08 00:29:39;;;;;;;8.53;4.90;;;;;;;8.04;100.00;97259.19;4942866;28;20035;-83
2021/10/08 00:32:05;;;;;;;10.53;4.90;;;;;;;8.02;100.00;97259.31;4943457;28;20038;-83
2021/10/08 00:34:31;;;;;;;8.60;5.23;;;;;;;8.02;100.00;97261.13;4940215;28;20139;-83
2021/10/08 00:36:57;;;;;;;9.73;5.73;;;;;;;7.94;100.00;97258.22;4962339;28;20031;-83
2021/10/08 00:39:26;;;;;;;10.00;5.80;;;;;;;7.97;100.00;97258.00;4945336;28;20035;-83
2021/10/08 00:41:53;;;;;;;8.53;5.70;;;;;;;7.85;100.00;97261.56;4961898;28;20027;-82
2021/10/08 00:44:18;;;;;;;8.13;5.60;;;;;;;7.89;100.00;97260.38;4960267;28;20065;-83
2021/10/08 00:46:51;;;;;;;9.87;5.77;;;;;;;7.89;100.00;97261.22;4956143;28;20031;-83
2021/10/08 00:49:17;;;;;;;8.13;5.53;;;;;;;7.87;100.00;97262.28;4956753;28;20125;-83
2021/10/08 00:51:43;;;;;;;8.13;5.33;;;;;;;7.86;100.00;97256.22;4934781;29;20114;-83
2021/10/08 00:54:08;;;;;;;7.77;5.03;;;;;;;7.85;100.00;97266.81;4952399;28;20023;-83
2021/10/08 00:56:35;;;;;;;11.87;5.40;;;;;;;7.77;100.00;97256.91;4946220;28;20147;-83
2021/10/08 00:59:01;;;;;;;8.43;5.33;;;;;;;7.75;100.00;97253.59;4964215;28;20125;-83
2021/10/08 01:01:40;;;;;;;9.43;5.57;;;;;;;7.75;100.00;97253.59;4958656;28;20161;-83
2021/10/08 01:04:08;;;;;;;9.10;6.00;;;;;;;7.75;100.00;97243.09;4941063;29;20039;-83
2021/10/08 01:06:34;;;;;;;7.97;5.10;;;;;;;7.74;100.00;97244.88;4938286;28;20529;-82
2021/10/08 01:09:00;;;;;;;8.03;5.20;;;;;;;7.74;100.00;97244.03;4940302;28;20038;-82
2021/10/08 01:11:29;;;;;;;11.40;5.60;;;;;;;7.74;100.00;97249.28;4955635;28;20039;-82
2021/10/08 01:13:56;;;;;;;7.10;5.40;;;;;;;7.69;100.00;97244.41;4944262;28;20058;-83
2021/10/08 01:16:39;;;;;;;10.60;6.20;;;;;;;7.62;100.00;97250.22;4964769;28;20049;-81
2021/10/08 01:19:04;;;;;;;10.17;6.17;;;;;;;7.61;100.00;97249.38;4937260;28;20481;-83
2021/10/08 01:21:30;;;;;;;11.03;5.70;;;;;;;7.56;100.00;97249.72;4961784;28;20118;-83
2021/10/08 01:23:56;;;;;;;7.40;5.53;;;;;;;7.53;100.00;97252.56;4959024;28;20045;-83
2021/10/08 01:26:25;;;;;;;10.93;6.37;;;;;;;7.53;100.00;97246.50;4945774;28;20083;-82
2021/10/08 01:28:52;;;;;;;9.60;6.63;;;;;;;7.43;100.00;97242.91;4954955;28;20070;-83
2021/10/08 01:31:20;;;;;;;10.30;6.43;;;;;;;7.48;100.00;97243.41;4951849;28;20057;-83
2021/10/08 01:33:51;;;;;;;9.67;6.27;;;;;;;7.42;100.00;97238.63;4949360;28;20034;-82
2021/10/08 01:36:18;;;;;;;11.50;6.30;;;;;;;7.42;100.00;97241.25;4950431;28;20410;-82
2021/10/08 01:38:45;;;;;;;8.57;5.80;;;;;;;7.39;100.00;97239.69;4965163;28;20049;-83
2021/10/08 01:41:11;;;;;;;9.43;6.50;;;;;;;7.39;100.00;97237.06;4960006;28;20035;-83
2021/10/08 01:43:37;;;;;;;12.43;6.53;;;;;;;7.36;100.00;97237.31;4944571;28;20038;-83
2021/10/08 01:46:03;;;;;;;12.40;7.07;;;;;;;7.39;100.00;97233.63;4956350;28;20076;-83
2021/10/08 01:48:34;;;;;;;10.80;7.33;;;;;;;7.31;100.00;97235.03;4949976;28;20057;-83
2021/10/08 01:51:00;;;;;;;9.23;6.57;;;;;;;7.33;100.00;97229.69;4944140;28;20027;-83
2021/10/08 01:53:26;;;;;;;12.50;7.57;;;;;;;7.32;100.00;97228.84;4943275;28;20030;-83
2021/10/08 01:55:53;;;;;;;11.00;6.73;;;;;;;7.28;100.00;97234.44;4957367;28;20041;-83
2021/10/08 01:58:24;;;;;;;10.63;7.23;;;;;;;7.26;100.00;97231.91;4938989;28;20038;-83
2021/10/08 02:00:50;;;;;;;9.20;7.13;;;;;;;7.19;100.00;97230.72;4957416;28;20027;-82
2021/10/08 02:03:35;;;;;;;11.57;6.93;;;;;;;7.16;100.00;97228.31;4955159;28;20019;-82
2021/10/08 02:06:06;;;;;;;9.67;6.80;;;;;;;7.18;100.00;97244.75;4975009;28;20130;-83
2021/10/08 02:08:42;;;;;;;11.80;7.37;;;;;;;7.10;100.00;97234.00;4952662;28;20037;-83
2021/10/08 02:11:12;;;;;;;9.97;7.17;;;;;;;7.07;100.00;97231.59;4942599;28;20050;-82
2021/10/08 02:13:39;;;;;;;8.83;6.77;;;;;;;7.02;100.00;97238.97;4941215;28;20023;-83
2021/10/08 02:16:05;;;;;;;10.80;7.57;;;;;;;7.06;100.00;97229.94;4942900;28;20019;-82
2021/10/08 02:18:31;;;;;;;13.43;7.83;;;;;;;7.04;100.00;97237.91;4957060;28;20027;-82
2021/10/08 02:20:59;;;;;;;9.90;7.83;;;;;;;7.05;100.00;97236.13;4947371;28;20397;-83
2021/10/08 02:23:26;;;;;;;12.10;7.83;;;;;;;7.06;100.00;97235.19;4955557;28;20045;-83
2021/10/08 02:25:53;;;;;;;12.80;8.33;;;;;;;7.02;100.00;97234.56;4943950;28;20018;-83
2021/10/08 02:28:21;;;;;;;12.43;8.80;;;;;;;7.00;100.00;97230.38;4952851;28;20042;-82
2021/10/08 02:30:47;;;;;;;13.63;8.60;;;;;;;7.01;100.00;97234.69;4941671;28;20069;-83
2021/10/08 02:33:13;;;;;;;12.67;9.00;;;;;;;6.99;100.00;97231.34;4959443;28;20031;-83
2021/10/08 02:35:39;;;;;;;11.13;8.80;;;;;;;6.99;100.00;97228.72;4981890;28;20053;-83
2021/10/08 02:38:07;;;;;;;11.50;9.23;;;;;;;6.99;100.00;97233.97;4966715;28;20511;-83
2021/10/08 02:40:33;;;;;;;13.53;8.30;;;;;;;6.95;100.00;97230.75;4947711;28;20023;-83
2021/10/08 02:46:34;;;;;;;14.33;8.90;;;;;;;6.92;100.00;97232.75;4956275;28;20047;-83
2021/10/08 02:48:59;;;;;;;12.33;8.93;;;;;;;6.95;100.00;97233.34;4939498;28;20031;-83
2021/10/08 02:51:25;;;;;;;13.27;8.97;;;;;;;6.97;100.00;97236.66;4944340;28;20026;-82
2021/10/08 02:54:03;;;;;;;12.17;9.40;;;;;;;6.92;100.00;97240.59;4943291;28;20058;-82
2021/10/08 02:56:30;;;;;;;14.23;9.10;;;;;;;6.92;100.00;97238.81;4939339;28;20066;-83
2021/10/08 02:58:59;;;;;;;14.90;8.63;;;;;;;6.83;100.00;97244.69;4944618;28;20036;-83
2021/10/08 03:01:25;;;;;;;12.47;9.03;;;;;;;6.81;100.00;97236.16;4933308;28;20498;-83
2021/10/08 03:03:51;;;;;;;14.37;10.30;;;;;;;6.80;100.00;97232.66;4955412;28;20023;-82
2021/10/08 03:06:17;;;;;;;14.20;9.33;;;;;;;6.75;100.00;97231.34;4954524;28;20038;-83
2021/10/08 03:08:53;;;;;;;13.93;9.90;;;;;;;6.83;100.00;97235.06;4938619;28;20054;-82
2021/10/08 03:11:24;;;;;;;14.93;9.87;;;;;;;6.78;100.00;97231.97;4944737;28;20117;-82
2021/10/08 03:13:49;;;;;;;13.70;10.10;;;;;;;6.81;100.00;97231.75;4957823;28;20030;-83
2021/10/08 03:16:15;;;;;;;12.10;9.83;;;;;;;6.78;100.00;97234.59;4958993;28;20030;-83
2021/10/08 03:18:49;;;;;;;17.43;11.40;;;;;;;6.84;100.00;97231.53;4942575;28;20027;-83
2021/10/08 03:21:22;;;;;;;17.03;10.80;;;;;;;6.82;100.00;97236.03;4940169;28;20042;-83
2021/10/08 03:23:58;;;;;;;11.00;8.27;;;;;;;6.81;100.00;97244.00;4976255;28;20342;-83
2021/10/08 03:26:28;;;;;;;15.17;11.53;;;;;;;6.73;100.00;97234.06;4954667;28;20043;-83
2021/10/08 03:28:54;;;;;;;13.73;10.60;;;;;;;6.72;100.00;97239.41;4939253;28;20037;-82
2021/10/08 03:31:20;;;;;;;15.10;11.00;;;;;;;6.69;100.00;97237.84;4955872;28;20026;-82
2021/10/08 03:33:54;;;;;;;16.47;11.10;;;;;;;6.73;100.00;97230.63;4936291;28;20033;-83
2021/10/08 03:36:29;;;;;;;15.30;10.70;;;;;;;6.67;100.00;97231.06;4937964;28;20070;-82
2021/10/08 03:38:56;;;;;;;15.90;10.93;;;;;;;6.69;100.00;97237.03;4960839;28;20057;-83
2021/10/08 03:41:22;;;;;;;14.30;11.80;;;;;;;6.67;100.00;97237.13;4980441;28;20781;-83
2021/10/08 03:43:57;;;;;;;14.23;11.50;;;;;;;6.61;100.00;97241.03;4965480;28;20089;-83
2021/10/08 03:46:26;;;;;;;16.93;11.83;;;;;;;6.57;100.00;97229.13;4970399;28;20539;-83
2021/10/08 03:51:28;;;;;;;13.23;10.90;;;;;;;6.58;100.00;97240.41;4984874;28;20117;-83
2021/10/08 03:53:57;;;;;;;14.77;11.90;;;;;;;6.55;100.00;97238.84;4947977;28;20057;-82
2021/10/08 03:56:23;;;;;;;16.20;12.17;;;;;;;6.56;100.00;97242.28;4956261;28;20066;-83
2021/10/08 03:58:49;;;;;;;17.33;12.83;;;;;;;6.56;100.00;97243.13;4945506;28;20026;-83
2021/10/08 04:01:17;;;;;;;12.97;11.57;;;;;;;6.56;100.00;97245.72;4951781;28;20046;-83
2021/10/08 04:03:44;;;;;;;20.40;12.93;;;;;;;6.58;100.00;97240.41;4953097;28;20043;-82
2021/10/08 04:06:10;;;;;;;20.23;14.23;;;;;;;6.51;100.00;97241.78;4937160;28;20137;-83
2021/10/08 04:08:36;;;;;;;15.07;12.17;;;;;;;6.51;100.00;97239.19;4941443;28;20118;-83
2021/10/08 04:11:02;;;;;;;16.07;12.40;;;;;;;6.55;100.00;97243.25;4943717;28;20038;-82
2021/10/08 04:13:29;;;;;;;17.40;12.40;;;;;;;6.54;100.00;97238.97;4952344;28;20085;-83
2021/10/08 04:15:56;;;;;;;23.57;13.80;;;;;;;6.47;100.00;97246.41;4934278;28;20030;-82
2021/10/08 04:18:22;;;;;;;16.87;13.23;;;;;;;6.50;100.00;97238.31;4946105;28;20034;-82
2021/10/08 04:24:38;;;;;;;18.63;14.77;;;;;;;6.47;100.00;97237.72;4967447;28;20053;-83
2021/10/08 04:27:04;;;;;;;18.20;13.93;;;;;;;6.45;100.00;97235.22;4941986;28;20035;-83
2021/10/08 04:29:30;;;;;;;17.90;14.10;;;;;;;6.47;100.00;97232.47;4938239;28;20094;-83
2021/10/08 04:31:56;;;;;;;21.00;14.97;;;;;;;6.47;100.00;97232.47;4956453;28;20090;-82
2021/10/08 04:34:25;;;;;;;18.90;15.20;;;;;;;6.45;100.00;97232.59;4958509;28;20073;-83
2021/10/08 04:36:51;;;;;;;19.80;14.37;;;;;;;6.45;100.00;97229.16;4959213;28;21020;-83
2021/10/08 04:39:17;;;;;;;22.07;13.97;;;;;;;6.44;100.00;97230.09;4961472;28;20023;-82
2021/10/08 04:41:43;;;;;;;18.53;14.83;;;;;;;6.44;100.00;97225.72;4952884;28;20026;-83
2021/10/08 04:44:13;;;;;;;18.80;14.83;;;;;;;6.43;100.00;97234.47;4964211;28;20035;-83
2021/10/08 04:46:40;;;;;;;17.57;14.47;;;;;;;6.41;100.00;97240.78;4940536;28;20038;-83
2021/10/08 04:49:07;;;;;;;20.17;14.90;;;;;;;6.37;100.00;97227.06;4943236;28;20026;-83
2021/10/08 04:51:33;;;;;;;18.77;14.73;;;;;;;6.30;100.00;97237.13;4945296;28;20042;-83
2021/10/08 04:54:00;;;;;;;18.00;14.63;;;;;;;6.34;100.00;97237.75;4945729;28;20471;-83
2021/10/08 04:56:26;;;;;;;18.80;14.70;;;;;;;6.29;100.00;97240.69;4957634;28;20038;-83
2021/10/08 05:02:40;;;;;;;21.13;15.57;;;;;;;6.33;100.00;97238.69;4977692;28;20041;-83
2021/10/08 05:05:08;;;;;;;24.60;15.50;;;;;;;6.32;100.00;97248.31;4945135;28;20077;-83
2021/10/08 05:07:35;;;;;;;20.10;16.67;;;;;;;6.31;100.00;97248.44;4942825;28;20030;-83
2021/10/08 05:10:09;;;;;;;22.87;17.50;;;;;;;6.29;100.00;97245.06;4941109;28;20247;-83
2021/10/08 05:20:10;;;;;;;21.27;15.93;;;;;;;6.29;100.00;97232.03;4969277;28;20189;-82
2021/10/08 05:22:43;;;;;;;;;;;;;;;6.25;100.00;97231.41;4942662;28;20060;-83
2021/10/08 05:25:11;;;;;;;20.30;15.73;;;;;;;6.27;100.00;97228.66;4966485;28;19933;-83
2021/10/08 05:27:36;;;;;;;25.40;16.33;;;;;;;6.24;100.00;97227.13;4947058;28;20125;-83
2021/10/08 05:30:04;;;;;;;20.80;15.73;;;;;;;6.29;100.00;97229.41;4952998;28;20516;-84
2021/10/08 05:32:36;;;;;;;19.43;15.77;;;;;;;6.20;100.00;97230.88;4946826;28;20409;-83
2021/10/08 05:35:01;;;;;;;23.27;15.30;;;;;;;6.23;100.00;97235.88;4957783;28;20056;-83
2021/10/08 05:37:27;;;;;;;26.10;17.67;;;;;;;6.22;100.00;97244.66;4954720;28;20026;-83
2021/10/08 05:39:53;;;;;;;25.23;15.83;;;;;;;6.27;100.00;97244.34;4946740;28;20035;-84
2021/10/08 05:42:19;;;;;;;21.47;15.60;;;;;;;6.17;100.00;97261.59;4942529;28;20027;-83
2021/10/08 05:44:44;;;;;;;21.53;16.10;;;;;;;6.20;100.00;97254.38;4956307;28;20035;-84
2021/10/08 05:47:11;;;;;;;18.37;15.07;;;;;;;6.21;100.00;97256.06;4942072;28;20038;-83
2021/10/08 05:49:37;;;;;;;20.13;15.30;;;;;;;6.25;100.00;97261.91;4938022;28;20054;-84
2021/10/08 05:52:03;;;;;;;24.27;17.80;;;;;;;6.27;100.00;97266.09;4938200;28;20027;-84
2021/10/08 05:54:29;;;;;;;25.83;16.30;;;;;;;6.31;100.00;97259.72;4953058;28;20034;-84
2021/10/08 05:56:54;;;;;;;19.87;14.83;;;;;;;6.22;100.00;97273.41;4937856;28;20122;-83
2021/10/08 05:59:22;;;;;;;21.37;13.97;;;;;;;6.25;100.00;97260.13;4934077;28;20031;-83
2021/10/08 06:01:48;;;;;;;20.73;15.33;;;;;;;6.22;100.00;97262.13;4953163;28;20023;-83
2021/10/08 06:04:17;;;;;;;19.83;15.57;;;;;;;6.20;100.00;97275.28;4954117;28;20105;-83
2021/10/08 06:06:44;;;;;;;36.27;27.77;;;;;;;6.21;100.00;97270.91;4922877;28;20035;-84
2021/10/08 06:09:10;;;;;;;29.57;21.93;;;;;;;6.24;100.00;97270.69;4958292;28;20386;-83
2021/10/08 06:11:37;;;;;;;19.80;15.77;;;;;;;6.27;100.00;97273.94;4956562;28;20027;-83
2021/10/08 06:14:03;;;;;;;18.97;15.17;;;;;;;6.23;100.00;97274.25;4934820;29;20117;-83
2021/10/08 06:16:30;;;;;;;20.20;14.73;;;;;;;6.32;100.00;97269.22;4952436;28;20496;-83
2021/10/08 06:19:01;;;;;;;20.73;14.70;;;;;;;6.37;100.00;97269.72;4939492;28;20113;-83
2021/10/08 06:21:27;;;;;;;22.70;15.43;;;;;;;6.54;100.00;97273.78;4934762;28;20101;-83
2021/10/08 06:23:53;;;;;;;19.43;15.37;;;;;;;6.56;100.00;97273.66;4954489;28;20038;-83
2021/10/08 06:26:21;;;;;;;24.63;18.63;;;;;;;6.92;100.00;97264.13;4954489;28;20042;-84
2021/10/08 06:28:47;;;;;;;24.23;16.60;;;;;;;7.33;100.00;97259.28;4954161;28;20023;-83
2021/10/08 06:31:19;;;;;;;19.00;13.93;;;;;;;7.66;100.00;97262.97;4954349;28;20726;-83
2021/10/08 06:33:46;;;;;;;16.45;12.70;;;;;;;7.93;100.00;97272.28;4955854;28;20069;-84
2021/10/08 06:36:12;;;;;;;20.30;14.20;;;;;;;8.44;100.00;97266.59;4954114;28;20054;-84
2021/10/08 06:38:41;;;;;;;17.73;13.13;;;;;;;8.72;100.00;97266.09;4937996;28;20042;-83
2021/10/08 06:41:07;;;;;;;19.17;13.37;;;;;;;9.19;100.00;97261.44;4957171;28;20105;-83
2021/10/08 06:43:32;;;;;;;16.13;11.67;;;;;;;8.88;100.00;97262.22;4956975;28;20042;-82
2021/10/08 06:46:21;;;;;;;14.77;12.30;;;;;;;9.48;100.00;97255.56;4945665;28;20559;-83
2021/10/08 06:48:48;;;;;;;21.73;15.53;;;;;;;9.45;99.25;97263.69;4930520;28;20035;-84
2021/10/08 06:51:14;;;;;;;17.67;13.10;;;;;;;10.05;97.99;97272.63;4938879;28;20034;-83
2021/10/08 06:53:43;;;;;;;17.90;13.63;;;;;;;10.51;96.23;97260.84;4955817;28;20117;-83
2021/10/08 06:56:09;;;;;;;13.70;8.97;;;;;;;10.17;95.09;97267.31;4950438;28;20130;-83
2021/10/08 06:58:54;;;;;;;12.90;9.07;;;;;;;10.29;94.20;97264.47;4951292;28;20085;-83
2021/10/08 07:01:22;;;;;;;14.07;9.87;;;;;;;10.28;95.38;97264.63;4934859;28;20034;-84
2021/10/08 07:03:49;;;;;;;13.17;9.43;;;;;;;10.30;94.41;97266.16;4954016;28;20109;-83
2021/10/08 07:06:53;;;;;;;11.23;8.73;;;;;;;10.25;93.21;97262.22;4940640;28;20069;-83
2021/10/08 07:09:31;;;;;;;16.90;9.20;;;;;;;9.26;100.00;97269.63;4934695;28;20378;-83
2021/10/08 07:11:56;;;;;;;13.93;9.60;;;;;;;9.01;100.00;97267.34;4937822;28;20121;-83
2021/10/08 07:14:22;;;;;;;10.73;9.30;;;;;;;9.08;100.00;97271.94;4936946;28;20135;-82
2021/10/08 07:16:50;;;;;;;14.47;9.50;;;;;;;8.94;100.00;97267.00;4967176;28;20030;-82
2021/10/08 07:19:18;;;;;;;13.07;9.70;;;;;;;9.11;100.00;97266.47;4954568;28;20038;-83
2021/10/08 07:21:44;;;;;;;13.93;9.97;;;;;;;8.90;100.00;97265.56;4948434;28;20027;-83
2021/10/08 07:24:10;;;;;;;15.17;10.33;;;;;;;9.02;100.00;97261.13;4937653;28;20444;-82
2021/10/08 07:26:36;;;;;;;14.57;9.93;;;;;;;8.81;100.00;97268.94;4953846;28;20096;-83
2021/10/08 07:29:02;;;;;;;13.47;9.97;;;;;;;8.69;100.00;97271.59;4970623;28;20030;-82
2021/10/08 07:31:28;;;;;;;12.40;9.73;;;;;;;8.81;100.00;97263.69;4948711;28;20042;-82
2021/10/08 07:33:54;;;;;;;15.60;10.10;;;;;;;8.96;100.00;97262.47;4937399;29;20418;-82
2021/10/08 07:36:20;;;;;;;13.57;9.83;;;;;;;8.76;100.00;97268.47;4972676;28;20034;-82
2021/10/08 07:38:46;;;;;;;14.67;10.70;;;;;;;8.78;100.00;97277.03;4959367;28;20030;-82
2021/10/08 07:41:12;;;;;;;17.23;11.17;;;;;;;8.86;100.00;97269.41;4973074;28;20485;-82
2021/10/08 07:43:40;;;;;;;14.60;11.83;;;;;;;8.80;100.00;97262.03;4969864;28;20037;-82
2021/10/08 07:46:07;;;;;;;14.97;11.37;;;;;;;8.90;100.00;97268.19;4958495;28;20039;-82
2021/10/08 07:48:33;;;;;;;14.80;11.57;;;;;;;8.87;100.00;97271.91;4969940;28;20085;-82
2021/10/08 07:50:59;;;;;;;15.77;10.90;;;;;;;8.91;100.00;97270.69;4936190;28;20040;-82
2021/10/08 07:53:35;;;;;;;14.97;11.33;;;;;;;8.92;100.00;97276.75;4951818;28;20023;-82
2021/10/08 07:56:01;;;;;;;17.53;11.70;;;;;;;8.93;100.00;97270.59;4954662;28;20049;-82
2021/10/08 07:58:27;;;;;;;15.43;11.77;;;;;;;9.11;100.00;97270.88;4936099;28;20030;-82
2021/10/08 08:00:58;;;;;;;15.83;11.10;;;;;;;8.96;100.00;97272.97;4937758;28;20481;-82
2021/10/08 08:03:24;;;;;;;14.33;11.43;;;;;;;9.13;100.00;97277.66;4940159;28;20100;-82
2021/10/08 08:05:50;;;;;;;76.60;48.00;;;;;;;9.06;100.00;97263.38;4953952;28;20030;-82
2021/10/08 08:08:16;;;;;;;89.40;47.97;;;;;;;9.26;100.00;97274.06;4951785;28;20118;-82
2021/10/08 08:10:44;;;;;;;15.40;12.07;;;;;;;9.34;100.00;97269.81;4937319;28;20023;-83
2021/10/08 08:13:10;;;;;;;15.20;10.60;;;;;;;9.20;100.00;97273.59;4956449;28;20046;-82
2021/10/08 08:15:36;;;;;;;17.00;11.97;;;;;;;9.24;100.00;97265.47;4967638;28;20023;-82
2021/10/08 08:18:02;;;;;;;16.33;11.27;;;;;;;9.38;100.00;97267.78;4937746;28;20054;-82
2021/10/08 08:20:28;;;;;;;17.43;11.87;;;;;;;9.34;100.00;97269.00;4934760;28;20030;-82
2021/10/08 08:22:54;;;;;;;16.67;11.03;;;;;;;9.47;100.00;97264.41;4956941;28;20031;-82
2021/10/08 08:25:24;;;;;;;16.33;12.27;;;;;;;9.52;100.00;97259.59;4941507;28;20034;-84
2021/10/08 08:27:50;;;;;;;16.17;11.83;;;;;;;9.63;100.00;97251.66;4955686;28;20043;-82
2021/10/08 08:30:16;;;;;;;18.17;13.10;;;;;;;9.66;100.00;97251.41;4935858;28;20038;-82
2021/10/08 08:32:41;;;;;;;16.10;11.20;;;;;;;9.85;100.00;97258.56;4944630;28;20038;-82
2021/10/08 08:35:09;;;;;;;16.50;11.40;;;;;;;9.87;100.00;97261.06;4956546;28;20408;-82
2021/10/08 08:37:35;;;;;;;17.20;11.33;;;;;;;9.89;100.00;97260.00;4946923;28;20453;-83
2021/10/08 08:40:10;;;;;;;15.07;10.97;;;;;;;10.09;100.00;97268.81;4938808;28;20026;-82
2021/10/08 08:42:36;;;;;;;13.83;10.50;;;;;;;10.15;100.00;97254.28;4944898;28;20157;-82
2021/10/08 08:45:04;;;;;;;16.20;10.60;;;;;;;10.13;100.00;97262.31;4936750;28;20468;-82
2021/10/08 08:47:59;;;;;;;15.10;10.33;;;;;;;10.29;100.00;97264.47;4974451;28;20500;-82
2021/10/08 08:50:27;;;;;;;13.37;10.67;;;;;;;10.32;100.00;97256.31;4938279;28;20027;-82
2021/10/08 08:52:53;;;;;;;14.93;10.03;;;;;;;10.18;100.00;97263.72;4945101;28;20464;-82
2021/10/08 08:55:20;;;;;;;13.93;9.90;;;;;;;10.31;100.00;97257.31;4965921;28;20601;-82
2021/10/08 08:57:46;;;;;;;16.00;10.03;;;;;;;10.30;100.00;97260.06;4952407;28;20034;-82
2021/10/08 09:00:18;;;;;;;14.17;9.93;;;;;;;10.45;100.00;97258.72;4954204;28;20062;-82
2021/10/08 09:02:51;;;;;;;11.83;9.80;;;;;;;10.62;100.00;97259.91;4970594;28;20027;-83
2021/10/08 09:05:29;;;;;;;15.82;10.25;;;;;;;10.63;100.00;97261.59;4957539;28;20447;-83
2021/10/08 09:07:58;;;;;;;11.57;9.00;;;;;;;10.83;100.00;97251.91;4958448;28;20042;-82
2021/10/08 09:10:52;;;;;;;14.90;9.63;;;;;;;10.98;100.00;97255.00;4955928;28;20485;-82
2021/10/08 09:13:17;;;;;;;15.53;10.40;;;;;;;10.92;100.00;97245.00;4937897;28;20436;-82
2021/10/08 09:15:49;;;;;;;13.37;9.73;;;;;;;11.01;100.00;97246.81;4976186;28;20137;-82
2021/10/08 09:18:20;;;;;;;15.30;9.77;;;;;;;11.08;100.00;97251.41;4972250;28;20066;-82
2021/10/08 09:21:03;;;;;;;15.77;9.23;;;;;;;11.25;100.00;97252.50;4953970;28;20174;-82
2021/10/08 09:23:31;;;;;;;13.82;8.98;;;;;;;11.13;100.00;97252.78;4958678;28;20057;-83
2021/10/08 09:25:57;;;;;;;14.53;10.20;;;;;;;11.05;100.00;97246.41;4958954;28;20057;-82
2021/10/08 09:28:22;;;;;;;15.60;9.77;;;;;;;10.99;100.00;97251.38;4950752;28;20062;-83
2021/10/08 09:30:49;;;;;;;12.60;9.23;;;;;;;11.23;100.00;97243.94;4951959;28;20114;-83
2021/10/08 09:33:20;;;;;;;12.17;9.77;;;;;;;11.35;100.00;97243.78;4939105;28;20042;-82
2021/10/08 09:35:49;;;;;;;14.57;10.17;;;;;;;11.25;100.00;97241.97;4957135;28;20038;-82
2021/10/08 09:38:16;;;;;;;14.80;10.37;;;;;;;11.32;100.00;97248.34;4945067;28;20034;-83
2021/10/08 09:40:47;;;;;;;14.40;10.50;;;;;;;11.41;100.00;97246.69;4896702;28;1277227;-82
2021/10/08 09:43:25;;;;;;;14.60;10.57;;;;;;;11.36;100.00;97251.53;4958777;28;20035;-83
2021/10/08 09:46:05;;;;;;;15.50;10.20;;;;;;;11.38;100.00;97248.78;4941280;28;20590;-83
2021/10/08 09:48:30;;;;;;;18.07;11.37;;;;;;;11.40;100.00;97247.69;4959916;28;20038;-83
2021/10/08 09:51:17;;;;;;;19.17;11.40;;;;;;;11.41;100.00;97241.44;4955037;28;20029;-82
2021/10/08 09:53:48;;;;;;;15.40;11.40;;;;;;;11.16;100.00;97247.25;4938223;28;20038;-82
2021/10/08 09:56:39;;;;;;;11.67;9.23;;;;;;;11.73;100.00;97238.47;4970961;28;20181;-83
2021/10/08 09:59:11;;;;;;;19.50;15.10;;;;;;;11.83;100.00;97246.34;4950251;28;20090;-82
2021/10/08 10:01:38;;;;;;;16.43;13.27;;;;;;;11.83;100.00;97241.06;4941309;28;20038;-82
2021/10/08 10:04:06;;;;;;;13.27;10.83;;;;;;;11.74;100.00;97244.59;4956935;28;20030;-83
2021/10/08 10:06:32;;;;;;;15.93;12.60;;;;;;;11.61;100.00;97236.97;4945173;28;20038;-83
2021/10/08 10:08:58;;;;;;;16.47;11.00;;;;;;;11.77;100.00;97239.03;4956166;28;20026;-83
2021/10/08 10:11:26;;;;;;;16.27;11.57;;;;;;;11.92;100.00;97240.25;4956728;28;20494;-83
2021/10/08 10:13:59;;;;;;;16.50;11.13;;;;;;;11.91;100.00;97238.59;4974879;28;20022;-83
2021/10/08 10:16:30;;;;;;;15.57;10.43;;;;;;;11.92;100.00;97236.81;4941472;28;20038;-83
2021/10/08 10:18:58;;;;;;;14.93;11.43;;;;;;;11.97;98.83;97232.78;4941212;28;20125;-82
2021/10/08 10:21:29;;;;;;;16.13;11.97;;;;;;;12.08;100.00;97234.41;4936841;28;20437;-82
2021/10/08 10:23:58;;;;;;;19.10;15.00;;;;;;;12.41;99.06;97229.56;4962145;28;20034;-83
2021/10/08 10:26:26;;;;;;;16.87;12.43;;;;;;;12.64;97.33;97230.81;4954145;28;20033;-83
2021/10/08 10:28:52;;;;;;;16.93;13.17;;;;;;;12.66;95.58;97234.13;4941756;28;20066;-82
2021/10/08 10:31:22;;;;;;;23.40;15.77;;;;;;;12.60;96.83;97233.88;4955628;28;20045;-82
2021/10/08 10:33:49;;;;;;;18.90;14.73;;;;;;;12.53;96.07;97227.53;4954889;28;20045;-83
2021/10/08 10:36:28;;;;;;;17.83;12.90;;;;;;;12.44;97.46;97240.63;4953110;28;20057;-83
2021/10/08 10:39:19;;;;;;;15.90;11.20;;;;;;;12.35;97.35;97241.50;4962110;28;20035;-85
2021/10/08 10:42:14;;;;;;;26.43;19.73;;;;;;;12.70;96.96;97239.94;4948459;28;20037;-84
2021/10/08 10:45:05;;;;;;;18.70;11.63;;;;;;;12.46;98.12;97235.19;4961501;28;20035;-84
2021/10/08 10:47:36;;;;;;;16.10;11.87;;;;;;;12.63;96.72;97234.41;4934439;28;20039;-86
2021/10/08 10:50:13;;;;;;;20.07;13.23;;;;;;;12.79;95.54;97238.22;4954925;28;20100;-85
2021/10/08 10:52:47;;;;;;;16.07;11.47;;;;;;;12.66;96.77;97238.56;4947456;28;20039;-84
2021/10/08 10:55:13;;;;;;;15.53;11.13;;;;;;;12.80;96.41;97230.16;4951416;28;20027;-84
2021/10/08 10:57:39;;;;;;;17.53;10.97;;;;;;;12.93;94.62;97219.22;4959965;28;20027;-85
2021/10/08 11:00:29;;;;;;;15.83;10.37;;;;;;;12.70;95.36;97232.00;4972988;28;20074;-85
2021/10/08 11:03:06;;;;;;;16.07;11.97;;;;;;;12.81;95.29;97234.47;4955526;28;20078;-85
2021/10/08 11:05:37;;;;;;;18.00;11.30;;;;;;;12.67;96.26;97232.31;4943188;28;20034;-85
2021/10/08 11:08:12;;;;;;;15.97;11.43;;;;;;;12.62;96.66;97227.47;4954854;28;20048;-84
2021/10/08 11:11:17;;;;;;;19.90;11.97;;;;;;;12.65;95.91;97229.81;4978679;28;20043;-84
2021/10/08 11:13:47;;;;;;;18.50;11.97;;;;;;;12.70;95.85;97230.19;4973014;28;20507;-84
2021/10/08 11:16:33;;;;;;;17.47;11.93;;;;;;;12.77;94.94;97217.25;4940071;28;20043;-85
2021/10/08 11:19:40;;;;;;;14.27;10.93;;;;;;;13.12;93.64;97215.63;4970204;28;20757;-85
2021/10/08 11:22:08;;;;;;;13.60;10.23;;;;;;;12.88;93.77;97217.03;4936404;28;20097;-85
2021/10/08 11:24:35;;;;;;;13.53;10.63;;;;;;;12.90;94.50;97217.72;4951189;28;20022;-84
2021/10/08 11:27:03;;;;;;;16.03;11.50;;;;;;;12.89;93.26;97218.69;4945880;28;20030;-85
2021/10/08 11:29:36;;;;;;;17.00;11.63;;;;;;;12.68;93.71;97210.25;4940145;28;20050;-85
2021/10/08 11:32:14;;;;;;;13.83;10.07;;;;;;;12.82;95.06;97216.81;4956133;28;20394;-85
2021/10/08 11:34:54;;;;;;;15.80;10.07;;;;;;;13.02;93.84;97214.88;4950813;28;20496;-85
2021/10/08 11:37:22;;;;;;;14.47;9.97;;;;;;;13.00;93.70;97216.81;4939415;28;20037;-85
2021/10/08 11:39:49;;;;;;;15.90;11.33;;;;;;;13.06;93.47;97208.31;4959029;28;20034;-84
2021/10/08 11:42:17;;;;;;;14.43;11.47;;;;;;;13.11;94.36;97201.59;4944150;28;20039;-84
2021/10/08 11:45:16;;;;;;;14.90;10.43;;;;;;;13.08;94.68;97201.06;4963790;28;20090;-85
2021/10/08 11:47:50;;;;;;;15.00;10.63;;;;;;;13.00;94.15;97195.69;4950247;28;20505;-84
2021/10/08 11:53:04;;;;;;;12.67;9.70;;;;;;;13.24;92.82;97193.28;4961364;28;20085;-85